Time;durP1;ratioP1;P1;durP2;ratioP2;P2;SDS_P1;SDS_P2;PMS_P1;PMS_P2;Temp;Humidity;BMP_temperature;BMP_pressure;BME280_temperature;BME280_humidity;BME280_pressure;Samples;Min_cycle;Max_cycle;Signal;HPM_P1;HPM_P2
2023/12/27 00:00:10;;;;;;;16.95;7.20;;;;;;;12.08;95.16;101480.78;5034440;28;20404;-67
2023/12/27 00:02:38;;;;;;;14.82;7.68;;;;;;;12.13;94.45;101486.19;5052658;28;20100;-67
2023/12/27 00:05:06;;;;;;;18.08;7.93;;;;;;;12.25;93.46;101491.25;5034776;28;20056;-67
2023/12/27 00:07:33;;;;;;;14.80;7.05;;;;;;;12.14;93.69;101489.78;5052139;28;20061;-67
2023/12/27 00:10:00;;;;;;;15.93;6.78;;;;;;;12.11;93.99;101496.75;5034653;28;20049;-68
2023/12/27 00:12:28;;;;;;;15.93;6.82;;;;;;;12.14;93.87;101475.97;5052757;28;20060;-67
2023/12/27 00:14:55;;;;;;;16.20;6.70;;;;;;;11.86;94.27;101477.88;5052317;28;20049;-68
2023/12/27 00:17:22;;;;;;;17.45;6.68;;;;;;;11.87;94.56;101474.00;5001770;28;20059;-67
2023/12/27 00:19:57;;;;;;;17.52;6.30;;;;;;;11.86;94.78;101469.59;5052161;28;20068;-68
2023/12/27 00:22:27;;;;;;;15.55;6.78;;;;;;;11.88;94.99;101469.28;5023658;28;20053;-68
2023/12/27 00:25:17;;;;;;;19.75;6.82;;;;;;;11.88;94.76;101478.41;5033423;28;20048;-66
2023/12/27 00:27:45;;;;;;;24.23;7.18;;;;;;;11.72;96.02;101481.72;5033012;28;20056;-67
2023/12/27 00:30:12;;;;;;;14.02;6.55;;;;;;;11.78;95.60;101477.75;5034486;28;20049;-67
2023/12/27 00:32:39;;;;;;;16.77;6.25;;;;;;;11.72;95.87;101470.69;5050613;28;20068;-65
2023/12/27 00:35:07;;;;;;;17.88;6.90;;;;;;;11.85;95.86;101462.47;5050283;28;20040;-67
2023/12/27 00:37:34;;;;;;;16.35;6.57;;;;;;;11.84;96.16;101460.81;5050707;28;20060;-67
2023/12/27 00:40:02;;;;;;;13.75;6.68;;;;;;;11.86;95.47;101457.72;5050442;28;20040;-68
2023/12/27 00:42:29;;;;;;;18.25;6.30;;;;;;;11.74;95.85;101458.22;5052144;28;20052;-67
2023/12/27 00:44:57;;;;;;;17.35;6.60;;;;;;;11.79;96.29;101451.78;5033989;28;20056;-67
2023/12/27 00:47:24;;;;;;;22.63;7.10;;;;;;;11.80;95.68;101450.69;5051311;28;20062;-67
2023/12/27 00:49:51;;;;;;;18.98;7.18;;;;;;;11.69;96.17;101451.97;5051547;28;20080;-67
2023/12/27 00:52:19;;;;;;;17.58;6.60;;;;;;;11.87;95.97;101448.34;5050510;28;20064;-67
2023/12/27 00:54:46;;;;;;;15.00;6.72;;;;;;;11.66;95.84;101449.84;5051319;28;20515;-67
2023/12/27 00:57:14;;;;;;;17.27;6.68;;;;;;;11.61;96.05;101456.22;5051516;28;20064;-67
2023/12/27 00:59:41;;;;;;;14.30;6.70;;;;;;;11.74;96.86;101449.94;5052262;28;20053;-67
2023/12/27 01:02:08;;;;;;;15.65;6.18;;;;;;;11.86;95.84;101443.94;5049671;28;20551;-66
2023/12/27 01:04:35;;;;;;;19.25;7.38;;;;;;;11.70;95.60;101431.56;5050208;28;20049;-67
2023/12/27 01:07:03;;;;;;;15.15;6.75;;;;;;;11.52;97.49;101437.91;5052052;28;20053;-67
2023/12/27 01:09:30;;;;;;;15.05;6.32;;;;;;;11.46;98.10;101434.41;5034084;28;20060;-66
2023/12/27 01:11:58;;;;;;;14.63;6.30;;;;;;;11.43;98.15;101432.25;5033791;28;20061;-67
2023/12/27 01:14:25;;;;;;;16.80;7.22;;;;;;;11.58;97.61;101447.72;5033987;28;20452;-66
2023/12/27 01:16:52;;;;;;;15.63;6.72;;;;;;;11.65;97.69;101446.25;5051029;28;20056;-67
2023/12/27 01:19:20;;;;;;;19.77;7.03;;;;;;;11.71;97.12;101445.03;5034243;28;20045;-67
2023/12/27 01:21:47;;;;;;;16.50;6.78;;;;;;;11.79;96.03;101455.38;5017414;28;20065;-66
2023/12/27 01:24:14;;;;;;;19.30;6.70;;;;;;;11.71;96.51;101456.09;5052360;28;20167;-67
2023/12/27 01:26:42;;;;;;;18.02;6.28;;;;;;;11.66;96.34;101458.94;5051582;28;20045;-68
2023/12/27 01:29:09;;;;;;;15.35;7.03;;;;;;;11.77;96.55;101451.31;5050813;28;20464;-67
2023/12/27 01:31:36;;;;;;;17.77;6.65;;;;;;;11.65;96.04;101437.13;5032479;28;20045;-67
2023/12/27 01:34:04;;;;;;;17.35;6.88;;;;;;;11.64;95.89;101444.63;5032415;28;20392;-67
2023/12/27 01:36:45;;;;;;;16.98;6.65;;;;;;;11.69;96.66;101438.19;5051324;28;20057;-66
2023/12/27 01:39:12;;;;;;;14.57;5.85;;;;;;;11.70;95.88;101434.31;5053032;28;20047;-67
2023/12/27 01:41:39;;;;;;;19.05;6.55;;;;;;;11.49;96.72;101441.28;5055414;28;20060;-66
2023/12/27 01:44:07;;;;;;;12.73;6.10;;;;;;;11.61;96.43;101452.66;5037593;28;20055;-67
2023/12/27 01:46:34;;;;;;;16.13;6.72;;;;;;;11.67;95.85;101462.50;5037792;28;20053;-66
2023/12/27 01:49:02;;;;;;;11.63;6.25;;;;;;;11.80;95.49;101465.28;5055222;28;20053;-66
2023/12/27 01:51:30;;;;;;;18.45;6.65;;;;;;;11.71;94.56;101449.75;5037522;28;20052;-67
2023/12/27 01:54:02;;;;;;;12.93;6.10;;;;;;;11.69;95.33;101427.97;5055648;28;20053;-68
2023/12/27 01:56:30;;;;;;;17.30;6.13;;;;;;;11.66;95.09;101436.84;5053978;28;20064;-67
2023/12/27 01:58:58;;;;;;;14.35;5.32;;;;;;;11.58;94.90;101440.25;5054095;28;20415;-67
2023/12/27 02:01:25;;;;;;;16.20;5.70;;;;;;;11.51;95.29;101427.97;5038117;28;20053;-66
2023/12/27 02:03:52;;;;;;;15.93;6.38;;;;;;;11.58;95.56;101409.09;5054383;28;20404;-67
2023/12/27 02:06:21;;;;;;;12.65;5.70;;;;;;;11.57;94.62;101407.47;5037514;28;20053;-67
2023/12/27 02:08:49;;;;;;;19.80;6.47;;;;;;;11.49;94.90;101413.69;5038229;28;20362;-67
2023/12/27 02:11:17;;;;;;;11.38;5.55;;;;;;;11.60;94.42;101412.38;5004169;28;20045;-67
2023/12/27 02:13:45;;;;;;;13.35;5.57;;;;;;;11.71;94.23;101413.84;5054220;28;20056;-66
2023/12/27 02:16:12;;;;;;;17.13;6.15;;;;;;;11.80;93.62;101429.41;5053535;28;20056;-67
2023/12/27 02:18:40;;;;;;;15.02;5.88;;;;;;;11.78;93.35;101417.88;5051902;28;20052;-67
2023/12/27 02:21:07;;;;;;;14.30;5.43;;;;;;;11.64;93.58;101413.41;5004633;28;20045;-67
2023/12/27 02:23:37;;;;;;;16.75;5.53;;;;;;;11.53;94.13;101423.81;5037540;28;20057;-66
2023/12/27 02:26:06;;;;;;;16.92;5.43;;;;;;;11.55;94.21;101407.78;5047450;28;20045;-67
2023/12/27 02:28:33;;;;;;;11.82;5.80;;;;;;;11.44;94.72;101416.53;5037335;28;20044;-66
2023/12/27 02:31:03;;;;;;;19.27;5.72;;;;;;;11.58;94.83;101417.38;5037187;28;20041;-66
2023/12/27 02:33:31;;;;;;;12.90;5.82;;;;;;;11.43;94.99;101415.72;5060191;28;20048;-66
2023/12/27 02:35:59;;;;;;;13.60;6.00;;;;;;;11.25;95.77;101411.03;5074488;28;20055;-67
2023/12/27 02:38:26;;;;;;;15.73;5.40;;;;;;;11.29;96.10;101414.84;5072944;28;20044;-66
2023/12/27 02:40:55;;;;;;;20.00;6.05;;;;;;;11.45;95.26;101420.91;5015777;28;20056;-68
2023/12/27 02:43:23;;;;;;;12.38;5.35;;;;;;;11.42;95.47;101403.03;5033561;28;20062;-67
2023/12/27 02:45:50;;;;;;;10.52;5.25;;;;;;;11.51;95.64;101397.63;5033220;28;20464;-67
2023/12/27 02:48:17;;;;;;;16.50;6.15;;;;;;;11.61;93.98;101387.22;5019620;28;20052;-68
2023/12/27 02:50:46;;;;;;;21.95;6.03;;;;;;;11.55;93.12;101374.66;5030111;28;20396;-66
2023/12/27 02:53:14;;;;;;;14.80;5.30;;;;;;;11.62;93.80;101353.00;5053325;28;20064;-67
2023/12/27 02:55:41;;;;;;;15.23;5.32;;;;;;;11.45;93.74;101358.31;5054031;28;20049;-67
2023/12/27 02:58:08;;;;;;;17.80;5.35;;;;;;;11.43;94.08;101365.22;5052773;28;20060;-67
2023/12/27 03:00:37;;;;;;;15.90;5.00;;;;;;;11.32;93.57;101373.69;5054095;28;20056;-67
2023/12/27 03:03:05;;;;;;;12.88;4.53;;;;;;;11.33;94.06;101375.31;5035836;28;20164;-67
2023/12/27 03:05:33;;;;;;;16.45;5.43;;;;;;;11.60;93.30;101363.53;5044006;28;20045;-66
2023/12/27 03:08:00;;;;;;;11.82;4.47;;;;;;;11.61;91.99;101376.19;5041695;28;20049;-66
2023/12/27 03:10:27;;;;;;;14.73;4.93;;;;;;;11.56;92.29;101364.44;5038685;28;20053;-66
2023/12/27 03:12:55;;;;;;;13.18;4.22;;;;;;;11.58;91.90;101362.19;5035803;28;20060;-67
2023/12/27 03:15:22;;;;;;;11.95;4.15;;;;;;;11.59;91.64;101374.88;5053912;28;20055;-66
2023/12/27 03:17:50;;;;;;;12.77;4.50;;;;;;;11.60;91.35;101366.28;5052206;28;20052;-66
2023/12/27 03:20:17;;;;;;;13.85;4.50;;;;;;;11.77;91.13;101361.00;5034694;28;20049;-67
2023/12/27 03:22:44;;;;;;;14.50;4.65;;;;;;;11.69;90.80;101364.50;5053075;28;20064;-66
2023/12/27 03:25:13;;;;;;;11.68;5.15;;;;;;;11.57;90.96;101363.31;5053302;28;20538;-66
2023/12/27 03:27:40;;;;;;;11.02;4.28;;;;;;;11.73;90.71;101357.25;5053525;28;20064;-67
2023/12/27 03:30:08;;;;;;;10.45;4.60;;;;;;;11.70;90.66;101346.00;5035797;28;20040;-67
2023/12/27 03:32:36;;;;;;;17.45;4.13;;;;;;;11.55;90.07;101360.88;5054250;28;20056;-67
2023/12/27 03:35:04;;;;;;;12.73;4.32;;;;;;;11.55;90.42;101344.31;5053250;28;20053;-67
2023/12/27 03:37:31;;;;;;;13.85;4.60;;;;;;;11.63;90.69;101331.75;5053664;28;20221;-67
2023/12/27 03:39:59;;;;;;;10.32;4.13;;;;;;;11.63;90.49;101337.28;5053855;28;20519;-66
2023/12/27 03:42:26;;;;;;;9.23;4.07;;;;;;;11.59;90.87;101327.97;5064927;28;20056;-67
2023/12/27 03:44:53;;;;;;;9.73;3.75;;;;;;;11.53;90.63;101318.97;5072842;28;20057;-67
2023/12/27 03:47:21;;;;;;;10.80;4.53;;;;;;;11.47;91.18;101311.09;5054254;28;20045;-66
2023/12/27 03:49:48;;;;;;;11.18;3.78;;;;;;;11.53;90.72;101324.47;5035146;28;20059;-67
2023/12/27 03:52:15;;;;;;;10.77;4.10;;;;;;;11.56;90.90;101332.13;5018032;28;20060;-67
2023/12/27 03:54:43;;;;;;;10.95;4.32;;;;;;;11.45;91.07;101327.13;5034372;28;20049;-66
2023/12/27 03:57:10;;;;;;;11.45;3.88;;;;;;;11.60;91.09;101327.66;5044874;28;20036;-67
2023/12/27 03:59:40;;;;;;;13.05;4.38;;;;;;;11.53;91.28;101316.22;5050908;28;20527;-67
2023/12/27 04:02:08;;;;;;;14.57;4.97;;;;;;;11.38;91.57;101317.28;5035526;28;20468;-66
2023/12/27 04:04:38;;;;;;;14.68;5.10;;;;;;;11.46;91.86;101321.31;5052777;28;20051;-67
2023/12/27 04:07:06;;;;;;;12.93;4.60;;;;;;;11.58;90.77;101324.38;5052824;28;20051;-67
2023/12/27 04:09:33;;;;;;;12.77;3.90;;;;;;;11.43;91.07;101332.13;5053192;28;20060;-67
2023/12/27 04:12:01;;;;;;;16.73;4.35;;;;;;;11.43;91.77;101329.38;5052376;28;20053;-67
2023/12/27 04:14:28;;;;;;;13.57;4.30;;;;;;;11.55;91.55;101324.16;5027143;28;20052;-68
2023/12/27 04:16:55;;;;;;;10.30;4.32;;;;;;;11.52;90.83;101313.75;5034901;28;20056;-66
2023/12/27 04:19:22;;;;;;;9.38;3.75;;;;;;;11.39;91.41;101307.09;5052123;28;20059;-67
2023/12/27 04:21:50;;;;;;;14.77;4.30;;;;;;;11.36;91.63;101302.19;5035164;28;20055;-66
2023/12/27 04:24:17;;;;;;;15.77;4.13;;;;;;;11.61;91.15;101287.91;5035021;28;20408;-67
2023/12/27 04:26:44;;;;;;;14.30;3.92;;;;;;;11.46;91.27;101271.66;5063867;28;20400;-68
2023/12/27 04:29:12;;;;;;;9.88;4.03;;;;;;;11.57;90.95;101273.09;5054830;28;20059;-67
2023/12/27 04:31:39;;;;;;;12.68;4.40;;;;;;;11.34;91.15;101283.19;5054819;28;20079;-69
2023/12/27 04:34:07;;;;;;;13.75;4.10;;;;;;;11.11;92.11;101269.56;5070172;28;20056;-66
2023/12/27 04:36:36;;;;;;;11.30;4.33;;;;;;;11.08;92.89;101267.41;5049667;28;20071;-67
2023/12/27 04:39:06;;;;;;;14.48;4.15;;;;;;;11.01;93.40;101273.34;5052086;28;20056;-67
2023/12/27 04:41:34;;;;;;;14.68;4.20;;;;;;;10.96;93.19;101278.13;5032011;28;20064;-66
2023/12/27 04:44:01;;;;;;;11.73;4.07;;;;;;;11.14;93.31;101263.47;5052376;28;20057;-66
2023/12/27 04:46:29;;;;;;;12.20;4.18;;;;;;;11.13;92.87;101267.31;5050504;28;20049;-66
2023/12/27 04:48:56;;;;;;;10.90;3.83;;;;;;;11.21;92.89;101259.16;5013864;28;20145;-66
2023/12/27 04:51:24;;;;;;;12.77;4.07;;;;;;;11.00;93.67;101266.16;4997610;28;20057;-66
2023/12/27 04:53:55;;;;;;;10.13;3.35;;;;;;;11.23;92.83;101256.91;5032654;28;20056;-67
2023/12/27 04:56:23;;;;;;;9.38;3.45;;;;;;;11.18;92.04;101269.97;5030624;28;20053;-67
2023/12/27 04:58:51;;;;;;;11.80;4.13;;;;;;;11.13;92.87;101264.56;5047893;28;20523;-67
2023/12/27 05:01:18;;;;;;;10.18;3.47;;;;;;;11.30;91.65;101265.63;5050941;28;20033;-67
2023/12/27 05:03:46;;;;;;;13.73;3.85;;;;;;;11.30;91.24;101259.28;5033591;28;20064;-69
2023/12/27 05:06:14;;;;;;;14.70;3.80;;;;;;;11.24;91.42;101255.78;5052038;28;20615;-67
2023/12/27 05:08:44;;;;;;;11.13;3.70;;;;;;;11.13;91.85;101270.91;5051900;28;20045;-67
2023/12/27 05:11:12;;;;;;;13.57;3.97;;;;;;;11.13;91.48;101268.16;5051840;28;20045;-66
2023/12/27 05:13:40;;;;;;;15.77;4.03;;;;;;;11.14;91.71;101269.78;5057549;28;20041;-67
2023/12/27 05:16:11;;;;;;;12.52;3.67;;;;;;;11.14;91.70;101250.47;5039710;28;20049;-66
2023/12/27 05:18:40;;;;;;;13.15;3.90;;;;;;;11.21;90.95;101256.41;5021152;28;20056;-67
2023/12/27 05:21:08;;;;;;;10.75;3.63;;;;;;;11.25;90.90;101267.63;5054797;28;20443;-67
2023/12/27 05:23:36;;;;;;;8.65;3.78;;;;;;;11.17;91.25;101271.94;5054590;28;20053;-67
2023/12/27 05:26:04;;;;;;;12.48;3.55;;;;;;;11.26;90.70;101266.53;5076303;28;20411;-66
2023/12/27 05:28:32;;;;;;;10.20;4.07;;;;;;;11.38;90.41;101249.47;5063975;28;20487;-68
2023/12/27 05:31:00;;;;;;;11.75;3.55;;;;;;;11.15;91.30;101248.53;5055798;28;20044;-66
2023/12/27 05:33:27;;;;;;;14.77;3.90;;;;;;;11.34;90.78;101246.50;5055811;28;20548;-67
2023/12/27 05:35:56;;;;;;;12.30;3.95;;;;;;;11.42;89.95;101258.78;5055661;28;20053;-67
2023/12/27 05:38:25;;;;;;;12.90;3.67;;;;;;;11.43;89.55;101254.91;5055831;28;20068;-66
2023/12/27 05:40:52;;;;;;;13.07;4.13;;;;;;;11.25;89.72;101257.44;5066270;28;20078;-67
2023/12/27 05:43:19;;;;;;;13.60;4.40;;;;;;;11.26;90.28;101250.78;5058222;28;20071;-67
2023/12/27 05:45:47;;;;;;;14.18;4.50;;;;;;;11.28;90.11;101237.53;5075359;28;20424;-67
2023/12/27 05:48:14;;;;;;;11.77;3.20;;;;;;;11.12;90.63;101244.44;5047993;28;20049;-67
2023/12/27 05:50:41;;;;;;;11.00;3.80;;;;;;;10.95;91.36;101240.63;5054139;28;20049;-67
2023/12/27 05:53:09;;;;;;;11.85;3.42;;;;;;;11.07;91.15;101233.50;5055446;28;20045;-67
2023/12/27 05:55:41;;;;;;;11.93;4.22;;;;;;;11.05;90.96;101238.50;5035992;28;20053;-67
2023/12/27 05:58:08;;;;;;;13.20;3.55;;;;;;;10.93;91.01;101229.13;5028392;28;20045;-67
2023/12/27 06:00:35;;;;;;;10.63;3.47;;;;;;;10.94;91.33;101241.75;5054282;28;20053;-67
2023/12/27 06:03:03;;;;;;;14.25;3.72;;;;;;;10.95;90.89;101238.69;5054049;28;20814;-67
2023/12/27 06:05:31;;;;;;;10.73;3.65;;;;;;;11.04;90.85;101239.63;5054795;28;20049;-67
2023/12/27 06:07:59;;;;;;;14.77;4.15;;;;;;;11.07;90.21;101238.22;5053257;28;20056;-66
2023/12/27 06:10:26;;;;;;;15.43;4.50;;;;;;;10.99;90.32;101244.41;5053621;28;20041;-68
2023/12/27 06:12:54;;;;;;;15.63;4.13;;;;;;;11.01;90.64;101240.25;5052763;28;20049;-67
2023/12/27 06:15:22;;;;;;;10.80;3.65;;;;;;;11.05;90.66;101244.03;5047980;28;20053;-66
2023/12/27 06:17:49;;;;;;;12.73;3.70;;;;;;;11.28;89.71;101251.31;5043198;28;20049;-67
2023/12/27 06:20:17;;;;;;;15.25;3.60;;;;;;;11.06;89.80;101256.69;5016948;28;20064;-68
2023/12/27 06:22:44;;;;;;;14.50;4.40;;;;;;;11.20;89.90;101253.97;5051946;28;20049;-67
2023/12/27 06:25:12;;;;;;;10.93;3.90;;;;;;;11.06;89.96;101256.69;5052952;28;20053;-67
2023/12/27 06:27:40;;;;;;;9.40;4.05;;;;;;;11.16;89.51;101261.19;5035937;28;20048;-68
2023/12/27 06:30:08;;;;;;;14.85;4.20;;;;;;;11.21;88.81;101261.09;5036426;28;20045;-66
2023/12/27 06:32:36;;;;;;;10.85;4.05;;;;;;;11.14;89.22;101263.47;5035433;28;20056;-67
2023/12/27 06:35:04;;;;;;;11.63;4.10;;;;;;;11.10;89.04;101259.66;5032989;28;20558;-67
2023/12/27 06:37:31;;;;;;;14.35;4.55;;;;;;;11.19;89.71;101258.66;5034098;28;20230;-67
2023/12/27 06:39:58;;;;;;;8.45;3.40;;;;;;;11.22;88.40;101255.31;5034331;28;20540;-66
2023/12/27 06:42:26;;;;;;;13.27;3.70;;;;;;;11.03;88.92;101251.78;5033919;28;20060;-66
2023/12/27 06:44:54;;;;;;;9.75;4.07;;;;;;;11.16;89.32;101244.66;5034433;28;20061;-68
2023/12/27 06:47:21;;;;;;;10.25;3.50;;;;;;;11.13;88.84;101239.75;5049181;28;20053;-66
2023/12/27 06:49:48;;;;;;;11.85;3.63;;;;;;;10.98;88.82;101243.59;5052754;28;20060;-67
2023/12/27 06:52:16;;;;;;;13.90;3.83;;;;;;;11.20;88.71;101235.47;5019268;28;20053;-67
2023/12/27 06:54:43;;;;;;;12.23;3.30;;;;;;;10.96;88.48;101245.88;5053775;28;20060;-67
2023/12/27 06:57:10;;;;;;;14.10;3.60;;;;;;;10.92;89.15;101236.56;5054057;28;20045;-67
2023/12/27 06:59:38;;;;;;;13.35;3.90;;;;;;;10.85;89.42;101240.81;5053978;28;20057;-68
2023/12/27 07:02:07;;;;;;;13.65;3.83;;;;;;;10.94;89.76;101233.50;5035732;28;20045;-66
2023/12/27 07:04:35;;;;;;;10.15;3.38;;;;;;;10.99;89.02;101225.13;5044940;28;20053;-67
2023/12/27 07:07:03;;;;;;;9.00;3.90;;;;;;;10.98;88.70;101232.56;5038060;28;20048;-68
2023/12/27 07:09:33;;;;;;;15.63;3.80;;;;;;;11.06;88.92;101223.63;5054137;28;20064;-61
2023/12/27 07:12:02;;;;;;;10.45;3.83;;;;;;;10.93;88.61;101210.63;5019895;28;20049;-61
2023/12/27 07:14:30;;;;;;;17.55;3.92;;;;;;;10.82;88.98;101224.88;5052061;28;20407;-61
2023/12/27 07:16:57;;;;;;;14.10;4.00;;;;;;;10.87;89.29;101222.88;5052379;28;20664;-61
2023/12/27 07:19:48;;;;;;;12.55;3.83;;;;;;;10.82;89.36;101225.72;5052534;28;20049;-64
2023/12/27 07:22:57;;;;;;;11.98;4.28;;;;;;;10.91;89.20;101221.13;5049536;28;20055;-61
2023/12/27 07:25:29;;;;;;;10.50;4.20;;;;;;;10.94;88.47;101212.28;5035360;28;20476;-62
2023/12/27 07:28:34;;;;;;;11.98;3.78;;;;;;;10.98;88.09;101213.28;5036374;28;20063;-61
2023/12/27 07:31:19;;;;;;;9.65;3.85;;;;;;;10.94;88.07;101208.69;5053044;28;20071;-61
2023/12/27 07:33:58;;;;;;;12.98;3.90;;;;;;;10.76;88.41;101223.34;5035591;28;20049;-64
2023/12/27 07:36:32;;;;;;;15.63;3.78;;;;;;;10.66;89.09;101213.31;5035493;28;20519;-62
2023/12/27 07:39:01;;;;;;;15.63;4.00;;;;;;;10.83;88.60;101210.81;5048468;28;20052;-62
2023/12/27 07:41:28;;;;;;;12.93;3.80;;;;;;;10.92;87.85;101200.72;5034270;28;20045;-61
2023/12/27 07:44:42;;;;;;;16.55;3.72;;;;;;;10.79;87.51;101206.22;5053481;28;20045;-61
2023/12/27 07:47:10;;;;;;;11.00;3.72;;;;;;;10.76;87.73;101204.88;4992912;28;20053;-61
2023/12/27 07:49:37;;;;;;;16.75;3.95;;;;;;;10.83;88.29;101215.50;5031220;28;20504;-61
2023/12/27 07:52:05;;;;;;;18.60;3.90;;;;;;;10.75;87.61;101214.28;5031522;28;20049;-61
2023/12/27 07:54:35;;;;;;;17.15;4.18;;;;;;;10.78;87.75;101210.91;5015510;28;20060;-61
2023/12/27 07:57:03;;;;;;;12.57;3.88;;;;;;;10.83;87.17;101207.22;5017158;28;20060;-61
2023/12/27 07:59:31;;;;;;;19.20;4.45;;;;;;;10.83;86.89;101208.06;5002496;28;20041;-61
2023/12/27 08:01:58;;;;;;;15.90;3.97;;;;;;;10.73;87.82;101202.72;5034385;28;20064;-67
2023/12/27 08:04:26;;;;;;;13.95;3.67;;;;;;;10.70;87.75;101210.78;5025082;28;20045;-67
2023/12/27 08:06:57;;;;;;;13.30;4.40;;;;;;;10.61;88.32;101207.91;5029052;28;20484;-67
2023/12/27 08:09:33;;;;;;;14.93;4.37;;;;;;;10.60;88.58;101209.00;5033227;28;20064;-67
2023/12/27 08:12:00;;;;;;;13.25;4.28;;;;;;;10.50;89.02;101200.09;5019665;28;20431;-66
2023/12/27 08:14:28;;;;;;;11.60;3.95;;;;;;;10.53;88.85;101205.03;5051304;28;20049;-67
2023/12/27 08:16:55;;;;;;;10.15;3.40;;;;;;;10.51;88.64;101210.84;5001377;28;20044;-67
2023/12/27 08:19:22;;;;;;;10.52;3.85;;;;;;;10.61;87.95;101210.66;5052227;28;20053;-67
2023/12/27 08:21:50;;;;;;;18.15;3.88;;;;;;;10.48;88.27;101207.88;5050988;28;20036;-67
2023/12/27 08:24:17;;;;;;;10.40;3.70;;;;;;;10.50;88.17;101213.88;5052495;28;20033;-66
2023/12/27 08:26:44;;;;;;;15.27;3.92;;;;;;;10.56;87.84;101210.75;5018305;28;20060;-68
2023/12/27 08:29:12;;;;;;;16.02;4.30;;;;;;;10.61;88.05;101210.66;5051719;28;20053;-66
2023/12/27 08:31:39;;;;;;;14.73;4.53;;;;;;;10.53;88.13;101216.03;5052681;28;20134;-67
2023/12/27 08:34:06;;;;;;;14.75;4.53;;;;;;;10.51;87.33;101216.34;5052640;28;20047;-67
2023/12/27 08:36:34;;;;;;;14.30;4.32;;;;;;;10.52;87.47;101215.22;5035080;28;20048;-67
2023/12/27 08:39:01;;;;;;;16.40;4.10;;;;;;;10.43;87.03;101217.00;5051520;28;20053;-67
2023/12/27 08:41:29;;;;;;;14.82;4.82;;;;;;;10.30;87.55;101212.28;5050804;28;20052;-67
2023/12/27 08:43:56;;;;;;;14.20;4.65;;;;;;;10.38;87.12;101211.59;5040049;28;20061;-68
2023/12/27 08:46:23;;;;;;;19.70;4.07;;;;;;;10.27;87.15;101212.06;5044827;28;20053;-69
2023/12/27 08:48:51;;;;;;;16.08;4.25;;;;;;;10.29;86.98;101202.38;5041993;28;20079;-68
2023/12/27 08:51:18;;;;;;;14.80;4.90;;;;;;;10.44;86.67;101204.91;5041214;28;20041;-68
2023/12/27 08:53:47;;;;;;;15.10;4.25;;;;;;;10.26;86.66;101202.16;5032898;28;20064;-67
2023/12/27 08:56:14;;;;;;;12.25;4.05;;;;;;;10.40;87.24;101200.28;5048638;28;20068;-67
2023/12/27 08:58:42;;;;;;;12.75;4.05;;;;;;;10.51;86.47;101199.81;5051273;28;20053;-68
2023/12/27 09:01:09;;;;;;;14.40;4.22;;;;;;;10.58;85.39;101200.25;5051641;28;20073;-68
2023/12/27 09:03:50;;;;;;;14.75;4.68;;;;;;;10.41;85.65;101199.16;5034423;28;20052;-68
2023/12/27 09:06:33;;;;;;;15.45;4.38;;;;;;;10.32;85.63;101189.94;5047325;28;20041;-69
2023/12/27 09:09:00;;;;;;;15.48;5.07;;;;;;;10.36;85.63;101188.22;5022087;28;20076;-69
2023/12/27 09:11:28;;;;;;;12.07;4.13;;;;;;;10.20;85.91;101185.72;5034064;28;20057;-68
2023/12/27 09:14:10;;;;;;;10.82;3.90;;;;;;;10.35;85.49;101189.34;5033842;28;20140;-68
2023/12/27 09:16:37;;;;;;;13.15;3.90;;;;;;;10.43;84.79;101189.47;5034948;28;20072;-67
2023/12/27 09:19:05;;;;;;;15.63;4.00;;;;;;;10.27;84.71;101188.09;5050590;28;20056;-68
2023/12/27 09:21:33;;;;;;;15.68;4.20;;;;;;;10.31;85.13;101189.13;5051517;28;20436;-69
2023/12/27 09:24:00;;;;;;;15.45;4.47;;;;;;;10.18;84.53;101193.44;5032216;28;20056;-67
2023/12/27 09:26:28;;;;;;;21.73;5.10;;;;;;;10.51;84.18;101188.81;5014209;28;20053;-67
2023/12/27 09:28:55;;;;;;;13.73;4.38;;;;;;;10.52;83.66;101192.34;5030053;28;20045;-68
2023/12/27 09:31:29;;;;;;;13.88;4.68;;;;;;;10.56;83.40;101188.72;5049781;28;20048;-68
2023/12/27 09:33:59;;;;;;;15.60;4.15;;;;;;;10.34;83.73;101184.97;5014081;28;20157;-69
2023/12/27 09:36:27;;;;;;;15.35;4.28;;;;;;;10.42;83.43;101179.59;5034450;28;20063;-69
2023/12/27 09:38:55;;;;;;;11.52;4.30;;;;;;;10.37;83.54;101179.69;5037024;28;20049;-68
2023/12/27 09:41:22;;;;;;;13.20;4.22;;;;;;;10.32;83.00;101179.72;5034367;28;20056;-68
2023/12/27 09:43:51;;;;;;;17.92;4.50;;;;;;;10.41;83.38;101177.13;5049725;28;20053;-68
2023/12/27 09:46:19;;;;;;;15.00;4.45;;;;;;;10.34;82.63;101177.50;5050242;28;20049;-68
2023/12/27 09:48:47;;;;;;;12.95;4.47;;;;;;;10.27;83.52;101177.06;5051006;28;20049;-68
2023/12/27 09:51:22;;;;;;;17.35;4.55;;;;;;;10.40;82.98;101173.56;5033148;28;20061;-68
2023/12/27 09:53:51;;;;;;;20.05;4.70;;;;;;;10.54;82.51;101166.16;5045284;28;20492;-68
2023/12/27 09:56:19;;;;;;;14.68;4.38;;;;;;;10.53;81.93;101170.00;5039723;28;20054;-68
2023/12/27 09:58:50;;;;;;;14.18;5.20;;;;;;;10.37;82.15;101163.16;5034265;28;20060;-68
2023/12/27 10:01:21;;;;;;;18.33;5.45;;;;;;;10.30;82.48;101159.13;5047700;28;20049;-68
2023/12/27 10:04:11;;;;;;;17.55;4.75;;;;;;;10.37;82.03;101148.56;5029435;28;20041;-70
2023/12/27 10:06:48;;;;;;;12.32;4.05;;;;;;;10.74;82.47;101146.50;5025361;28;20053;-70
2023/12/27 10:09:16;;;;;;;7.85;3.85;;;;;;;10.98;80.67;101149.09;5018871;28;20049;-68
2023/12/27 10:12:03;;;;;;;15.52;4.47;;;;;;;10.79;79.65;101148.34;5047746;28;20057;-69
2023/12/27 10:14:49;;;;;;;14.45;3.97;;;;;;;11.04;81.70;101136.81;5042652;28;20054;-70
2023/12/27 10:17:21;;;;;;;11.93;3.55;;;;;;;10.92;79.00;101136.50;5034660;28;20046;-70
2023/12/27 10:19:55;;;;;;;16.05;4.07;;;;;;;11.03;79.48;101129.69;5027603;28;20047;-70
2023/12/27 10:22:32;;;;;;;11.82;4.28;;;;;;;10.67;79.42;101123.25;5042514;28;20071;-68
2023/12/27 10:25:33;;;;;;;15.60;4.35;;;;;;;11.08;79.54;101124.06;5052503;28;20511;-70
2023/12/27 10:28:01;;;;;;;14.10;4.28;;;;;;;11.16;78.26;101123.34;5038743;28;20044;-70
2023/12/27 10:31:11;;;;;;;11.95;3.92;;;;;;;11.15;76.90;101116.19;5049869;28;20044;-68
2023/12/27 10:33:44;;;;;;;12.38;4.20;;;;;;;11.26;78.03;101117.63;5032621;28;20045;-67
2023/12/27 10:36:12;;;;;;;13.15;4.72;;;;;;;11.13;78.24;101113.75;5028789;28;20047;-67
2023/12/27 10:39:07;;;;;;;14.95;4.57;;;;;;;11.12;77.00;101103.03;5034716;28;20064;-67
2023/12/27 10:41:40;;;;;;;28.02;3.95;;;;;;;11.47;78.21;101084.91;5049117;28;20049;-66
2023/12/27 10:44:18;;;;;;;14.27;3.80;;;;;;;11.28;76.74;101080.34;5018283;28;20583;-68
2023/12/27 10:46:46;;;;;;;13.35;4.32;;;;;;;11.18;76.05;101080.56;5054779;28;20041;-68
2023/12/27 10:49:14;;;;;;;12.02;3.67;;;;;;;11.58;77.88;101059.50;5054926;28;20057;-67
2023/12/27 10:51:47;;;;;;;13.95;4.40;;;;;;;11.34;76.34;101059.81;5049396;28;20488;-69
2023/12/27 10:54:21;;;;;;;17.95;5.50;;;;;;;11.49;76.01;101050.34;5054200;28;20032;-68
2023/12/27 10:56:52;;;;;;;12.27;3.90;;;;;;;11.49;76.04;101052.31;5069183;28;20114;-68
2023/12/27 10:59:19;;;;;;;9.05;3.88;;;;;;;11.62;75.29;101056.94;5064432;28;20056;-68
2023/12/27 11:01:48;;;;;;;15.55;4.30;;;;;;;11.72;75.67;101060.31;5049115;28;20059;-70
2023/12/27 11:04:16;;;;;;;22.40;7.78;;;;;;;11.81;74.54;101052.09;5035394;28;20048;-67
2023/12/27 11:06:45;;;;;;;13.43;4.93;;;;;;;11.68;73.32;101037.22;5032390;28;20063;-67
2023/12/27 11:09:14;;;;;;;10.07;3.13;;;;;;;11.56;73.54;101028.66;5044440;28;20072;-67
2023/12/27 11:11:42;;;;;;;12.45;3.95;;;;;;;11.47;73.57;101024.22;5059113;28;20075;-66
2023/12/27 11:14:13;;;;;;;16.00;6.15;;;;;;;11.42;74.19;101018.81;5053765;28;20041;-61
2023/12/27 11:16:44;;;;;;;15.60;6.38;;;;;;;11.65;73.08;101006.69;5039014;28;20060;-61
2023/12/27 11:19:12;;;;;;;13.18;4.00;;;;;;;11.45;73.29;101004.41;5061993;28;20067;-61
2023/12/27 11:21:40;;;;;;;13.05;5.60;;;;;;;11.62;73.29;100993.50;5060815;28;20045;-62
2023/12/27 11:24:08;;;;;;;15.65;7.00;;;;;;;11.40;73.40;101002.59;5036186;28;20491;-60
2023/12/27 11:26:36;;;;;;;16.13;5.55;;;;;;;11.29;74.08;100993.75;5038943;28;20056;-61